sensor_id;sensor_type;location;lat;lon;timestamp;pressure;altitude;pressure_sealevel;temperature;humidity
12781;BME280;6454;43.304;24.344;2022-10-16T00:02:26;101146.09;;;6.11;79.29
12781;BME280;6454;43.304;24.344;2022-10-16T00:04:52;101151.59;;;6.05;79.24
12781;BME280;6454;43.304;24.344;2022-10-16T00:07:20;101151.72;;;5.98;79.62
12781;BME280;6454;43.304;24.344;2022-10-16T00:09:48;101157.09;;;5.98;79.56
12781;BME280;6454;43.304;24.344;2022-10-16T00:12:15;101156.88;;;6.00;79.40
12781;BME280;6454;43.304;24.344;2022-10-16T00:14:42;101148.66;;;5.95;79.44
12781;BME280;6454;43.304;24.344;2022-10-16T00:17:09;101153.69;;;5.91;79.98
12781;BME280;6454;43.304;24.344;2022-10-16T00:19:36;101141.16;;;5.97;79.01
12781;BME280;6454;43.304;24.344;2022-10-16T00:22:03;101146.41;;;5.92;78.86
12781;BME280;6454;43.304;24.344;2022-10-16T00:24:30;101145.72;;;5.84;79.67
12781;BME280;6454;43.304;24.344;2022-10-16T00:27:06;101149.56;;;5.89;79.05
12781;BME280;6454;43.304;24.344;2022-10-16T00:29:33;101151.31;;;5.83;79.11
12781;BME280;6454;43.304;24.344;2022-10-16T00:32:00;101153.88;;;5.78;79.76
12781;BME280;6454;43.304;24.344;2022-10-16T00:34:27;101150.94;;;5.79;78.84
12781;BME280;6454;43.304;24.344;2022-10-16T00:36:54;101160.28;;;5.77;78.61
12781;BME280;6454;43.304;24.344;2022-10-16T00:39:21;101154.66;;;5.67;79.39
12781;BME280;6454;43.304;24.344;2022-10-16T00:41:48;101155.47;;;5.67;80.37
12781;BME280;6454;43.304;24.344;2022-10-16T00:47:29;101163.75;;;5.66;79.84
12781;BME280;6454;43.304;24.344;2022-10-16T00:50:00;101156.84;;;5.58;79.73
12781;BME280;6454;43.304;24.344;2022-10-16T00:52:30;101162.59;;;5.62;79.33
12781;BME280;6454;43.304;24.344;2022-10-16T00:54:58;101163.03;;;5.59;78.74
12781;BME280;6454;43.304;24.344;2022-10-16T00:57:25;101162.91;;;5.54;78.97
12781;BME280;6454;43.304;24.344;2022-10-16T00:59:53;101162.09;;;5.53;79.99
12781;BME280;6454;43.304;24.344;2022-10-16T01:02:20;101162.00;;;5.60;79.77
12781;BME280;6454;43.304;24.344;2022-10-16T01:04:50;101153.09;;;5.59;80.04
12781;BME280;6454;43.304;24.344;2022-10-16T01:07:27;101157.66;;;5.59;78.98
12781;BME280;6454;43.304;24.344;2022-10-16T01:10:09;101161.41;;;5.58;79.20
12781;BME280;6454;43.304;24.344;2022-10-16T01:12:42;101154.75;;;5.60;78.52
12781;BME280;6454;43.304;24.344;2022-10-16T01:15:18;101157.38;;;5.49;79.05
12781;BME280;6454;43.304;24.344;2022-10-16T01:17:53;101159.88;;;5.50;79.58
12781;BME280;6454;43.304;24.344;2022-10-16T01:20:26;101150.00;;;5.44;79.24
12781;BME280;6454;43.304;24.344;2022-10-16T01:23:02;101149.56;;;5.47;79.72
12781;BME280;6454;43.304;24.344;2022-10-16T01:25:47;101153.75;;;5.43;79.88
12781;BME280;6454;43.304;24.344;2022-10-16T01:28:27;101154.56;;;5.44;79.28
12781;BME280;6454;43.304;24.344;2022-10-16T01:30:58;101155.63;;;5.43;79.34
12781;BME280;6454;43.304;24.344;2022-10-16T01:33:32;101169.28;;;5.41;79.71
12781;BME280;6454;43.304;24.344;2022-10-16T01:36:05;101165.31;;;5.44;79.40
12781;BME280;6454;43.304;24.344;2022-10-16T01:38:36;101153.38;;;5.40;79.04
12781;BME280;6454;43.304;24.344;2022-10-16T01:41:07;101174.47;;;5.43;79.27
12781;BME280;6454;43.304;24.344;2022-10-16T01:43:42;101170.94;;;5.42;79.54
12781;BME280;6454;43.304;24.344;2022-10-16T01:46:10;101171.97;;;5.41;78.54
12781;BME280;6454;43.304;24.344;2022-10-16T01:48:39;101174.00;;;5.46;79.23
12781;BME280;6454;43.304;24.344;2022-10-16T01:51:10;101181.31;;;5.39;79.82
12781;BME280;6454;43.304;24.344;2022-10-16T01:53:39;101176.09;;;5.44;79.54
12781;BME280;6454;43.304;24.344;2022-10-16T01:56:09;101175.28;;;5.43;79.06
12781;BME280;6454;43.304;24.344;2022-10-16T01:58:41;101184.78;;;5.46;79.04
12781;BME280;6454;43.304;24.344;2022-10-16T02:01:11;101179.41;;;5.46;78.94
12781;BME280;6454;43.304;24.344;2022-10-16T02:03:42;101186.84;;;5.44;79.24
12781;BME280;6454;43.304;24.344;2022-10-16T02:06:10;101178.19;;;5.42;79.14
12781;BME280;6454;43.304;24.344;2022-10-16T02:08:37;101188.13;;;5.41;79.49
12781;BME280;6454;43.304;24.344;2022-10-16T02:11:06;101189.19;;;5.40;80.52
12781;BME280;6454;43.304;24.344;2022-10-16T02:13:37;101184.84;;;5.39;80.65
12781;BME280;6454;43.304;24.344;2022-10-16T02:16:07;101192.03;;;5.45;80.20
12781;BME280;6454;43.304;24.344;2022-10-16T02:18:34;101180.66;;;5.43;80.62
12781;BME280;6454;43.304;24.344;2022-10-16T02:21:02;101155.66;;;5.25;81.17
12781;BME280;6454;43.304;24.344;2022-10-16T02:23:37;101188.06;;;5.48;81.10
12781;BME280;6454;43.304;24.344;2022-10-16T02:26:13;101188.63;;;5.50;81.46
12781;BME280;6454;43.304;24.344;2022-10-16T02:28:46;101197.59;;;5.44;82.32
12781;BME280;6454;43.304;24.344;2022-10-16T02:31:18;101198.81;;;5.48;83.03
12781;BME280;6454;43.304;24.344;2022-10-16T02:33:47;101199.78;;;5.53;82.66
12781;BME280;6454;43.304;24.344;2022-10-16T02:36:14;101205.03;;;5.48;82.24
12781;BME280;6454;43.304;24.344;2022-10-16T02:38:41;101190.22;;;5.39;82.86
12781;BME280;6454;43.304;24.344;2022-10-16T02:41:08;101195.31;;;5.47;83.10
12781;BME280;6454;43.304;24.344;2022-10-16T02:43:35;101196.97;;;5.48;82.05
12781;BME280;6454;43.304;24.344;2022-10-16T02:46:02;101198.81;;;5.48;82.31
12781;BME280;6454;43.304;24.344;2022-10-16T02:48:30;101203.13;;;5.49;83.28
12781;BME280;6454;43.304;24.344;2022-10-16T02:50:57;101207.38;;;5.56;83.16
12781;BME280;6454;43.304;24.344;2022-10-16T02:53:24;101208.94;;;5.64;82.50
12781;BME280;6454;43.304;24.344;2022-10-16T02:55:51;101210.13;;;5.68;82.16
12781;BME280;6454;43.304;24.344;2022-10-16T02:58:18;101208.88;;;5.70;81.54
12781;BME280;6454;43.304;24.344;2022-10-16T03:00:45;101205.56;;;5.68;81.22
12781;BME280;6454;43.304;24.344;2022-10-16T03:03:12;101207.44;;;5.68;81.24
12781;BME280;6454;43.304;24.344;2022-10-16T03:05:40;101205.78;;;5.67;81.71
12781;BME280;6454;43.304;24.344;2022-10-16T03:08:07;101198.75;;;5.66;81.50
12781;BME280;6454;43.304;24.344;2022-10-16T03:10:34;101199.38;;;5.68;81.05
12781;BME280;6454;43.304;24.344;2022-10-16T03:13:00;101207.66;;;5.66;81.50
12781;BME280;6454;43.304;24.344;2022-10-16T03:15:28;101209.53;;;5.66;81.52
12781;BME280;6454;43.304;24.344;2022-10-16T03:17:56;101210.47;;;5.71;81.04
12781;BME280;6454;43.304;24.344;2022-10-16T03:20:23;101214.31;;;5.64;80.87
12781;BME280;6454;43.304;24.344;2022-10-16T03:22:52;101166.09;;;5.33;80.63
12781;BME280;6454;43.304;24.344;2022-10-16T03:25:19;101215.38;;;5.63;80.93
12781;BME280;6454;43.304;24.344;2022-10-16T03:27:46;101226.50;;;5.66;80.39
12781;BME280;6454;43.304;24.344;2022-10-16T03:30:13;101227.56;;;5.65;80.36
12781;BME280;6454;43.304;24.344;2022-10-16T03:32:39;101231.53;;;5.63;80.53
12781;BME280;6454;43.304;24.344;2022-10-16T03:35:07;101224.25;;;5.63;80.02
12781;BME280;6454;43.304;24.344;2022-10-16T03:37:34;101227.72;;;5.52;79.61
12781;BME280;6454;43.304;24.344;2022-10-16T03:40:03;101230.03;;;5.49;80.60
12781;BME280;6454;43.304;24.344;2022-10-16T03:42:30;101233.22;;;5.46;81.44
12781;BME280;6454;43.304;24.344;2022-10-16T03:44:57;101230.72;;;5.44;81.75
12781;BME280;6454;43.304;24.344;2022-10-16T03:47:24;101232.38;;;5.45;81.57
12781;BME280;6454;43.304;24.344;2022-10-16T03:49:51;101242.75;;;5.42;81.61
12781;BME280;6454;43.304;24.344;2022-10-16T03:52:18;101239.38;;;5.46;81.96
12781;BME280;6454;43.304;24.344;2022-10-16T03:54:44;101238.59;;;5.46;80.91
12781;BME280;6454;43.304;24.344;2022-10-16T03:57:13;101247.56;;;5.40;79.90
12781;BME280;6454;43.304;24.344;2022-10-16T03:59:40;101244.63;;;5.41;80.52
12781;BME280;6454;43.304;24.344;2022-10-16T04:02:06;101244.03;;;5.39;80.30
12781;BME280;6454;43.304;24.344;2022-10-16T04:04:33;101246.38;;;5.36;80.63
12781;BME280;6454;43.304;24.344;2022-10-16T04:07:00;101240.31;;;5.40;79.83
12781;BME280;6454;43.304;24.344;2022-10-16T04:09:27;101247.16;;;5.36;79.87
12781;BME280;6454;43.304;24.344;2022-10-16T04:11:54;101245.16;;;5.32;80.42
12781;BME280;6454;43.304;24.344;2022-10-16T04:14:22;101242.47;;;5.32;80.49
12781;BME280;6454;43.304;24.344;2022-10-16T04:16:49;101245.16;;;5.32;80.77
12781;BME280;6454;43.304;24.344;2022-10-16T04:19:16;101247.72;;;5.27;80.30
12781;BME280;6454;43.304;24.344;2022-10-16T04:21:43;101251.75;;;5.17;80.79
12781;BME280;6454;43.304;24.344;2022-10-16T04:24:10;101259.97;;;5.22;80.97
12781;BME280;6454;43.304;24.344;2022-10-16T04:26:37;101239.81;;;5.13;79.90
12781;BME280;6454;43.304;24.344;2022-10-16T04:29:04;101255.88;;;5.20;79.95
12781;BME280;6454;43.304;24.344;2022-10-16T04:31:33;101255.66;;;5.03;80.31
12781;BME280;6454;43.304;24.344;2022-10-16T04:34:00;101261.03;;;5.03;80.74
12781;BME280;6454;43.304;24.344;2022-10-16T04:36:27;101256.25;;;5.05;80.14
12781;BME280;6454;43.304;24.344;2022-10-16T04:38:54;101258.78;;;5.00;79.95
12781;BME280;6454;43.304;24.344;2022-10-16T04:41:21;101265.47;;;4.91;80.86
12781;BME280;6454;43.304;24.344;2022-10-16T04:43:48;101267.34;;;4.91;81.05
12781;BME280;6454;43.304;24.344;2022-10-16T04:46:15;101264.50;;;4.86;80.35
12781;BME280;6454;43.304;24.344;2022-10-16T04:48:43;101272.84;;;4.78;81.57
12781;BME280;6454;43.304;24.344;2022-10-16T04:51:10;101285.31;;;4.72;81.78
12781;BME280;6454;43.304;24.344;2022-10-16T04:53:37;101288.16;;;4.77;81.60
12781;BME280;6454;43.304;24.344;2022-10-16T04:56:04;101284.78;;;4.82;81.12
12781;BME280;6454;43.304;24.344;2022-10-16T04:58:31;101284.44;;;4.78;81.31
12781;BME280;6454;43.304;24.344;2022-10-16T05:00:58;101286.56;;;4.70;82.24
12781;BME280;6454;43.304;24.344;2022-10-16T05:03:25;101288.59;;;4.74;81.88
12781;BME280;6454;43.304;24.344;2022-10-16T05:05:53;101287.56;;;4.75;82.05
12781;BME280;6454;43.304;24.344;2022-10-16T05:08:20;101289.03;;;4.71;82.71
12781;BME280;6454;43.304;24.344;2022-10-16T05:10:47;101291.88;;;4.76;83.33
12781;BME280;6454;43.304;24.344;2022-10-16T05:13:14;101301.75;;;4.82;83.39
12781;BME280;6454;43.304;24.344;2022-10-16T05:15:41;101307.88;;;4.89;83.18
12781;BME280;6454;43.304;24.344;2022-10-16T05:18:08;101301.91;;;4.87;83.96
12781;BME280;6454;43.304;24.344;2022-10-16T05:20:35;101308.03;;;4.94;84.10
12781;BME280;6454;43.304;24.344;2022-10-16T05:23:03;101304.91;;;4.97;84.55
12781;BME280;6454;43.304;24.344;2022-10-16T05:25:30;101307.09;;;5.07;84.19
12781;BME280;6454;43.304;24.344;2022-10-16T05:27:57;101312.44;;;5.13;85.12
12781;BME280;6454;43.304;24.344;2022-10-16T05:30:24;101307.72;;;5.27;85.65
12781;BME280;6454;43.304;24.344;2022-10-16T05:32:51;101308.47;;;5.34;86.01
12781;BME280;6454;43.304;24.344;2022-10-16T05:35:18;101313.63;;;5.36;86.48
12781;BME280;6454;43.304;24.344;2022-10-16T05:37:45;101321.53;;;5.49;86.89
12781;BME280;6454;43.304;24.344;2022-10-16T05:40:14;101278.28;;;5.32;86.95
12781;BME280;6454;43.304;24.344;2022-10-16T05:42:42;101328.25;;;5.76;86.68
12781;BME280;6454;43.304;24.344;2022-10-16T05:45:10;101305.41;;;5.67;86.61
12781;BME280;6454;43.304;24.344;2022-10-16T05:47:38;101329.53;;;5.92;86.90
12781;BME280;6454;43.304;24.344;2022-10-16T05:50:05;101331.56;;;5.96;87.55
12781;BME280;6454;43.304;24.344;2022-10-16T05:52:32;101337.94;;;6.13;87.26
12781;BME280;6454;43.304;24.344;2022-10-16T05:54:59;101332.97;;;6.28;87.72
12781;BME280;6454;43.304;24.344;2022-10-16T05:57:28;101339.25;;;6.40;87.69
12781;BME280;6454;43.304;24.344;2022-10-16T05:59:55;101348.03;;;6.47;87.73
12781;BME280;6454;43.304;24.344;2022-10-16T06:02:22;101337.16;;;6.66;87.98
12781;BME280;6454;43.304;24.344;2022-10-16T06:04:49;101343.31;;;6.84;88.67
12781;BME280;6454;43.304;24.344;2022-10-16T06:07:19;101345.41;;;6.94;89.34
12781;BME280;6454;43.304;24.344;2022-10-16T06:09:48;101326.31;;;6.95;90.09
12781;BME280;6454;43.304;24.344;2022-10-16T06:12:15;101341.09;;;7.28;90.39
12781;BME280;6454;43.304;24.344;2022-10-16T06:14:44;101340.72;;;7.47;90.68
12781;BME280;6454;43.304;24.344;2022-10-16T06:17:12;101340.44;;;7.60;90.96
12781;BME280;6454;43.304;24.344;2022-10-16T06:19:39;101341.16;;;7.67;91.69
12781;BME280;6454;43.304;24.344;2022-10-16T06:22:06;101335.16;;;7.77;91.97
12781;BME280;6454;43.304;24.344;2022-10-16T06:24:33;101342.00;;;7.96;91.78
12781;BME280;6454;43.304;24.344;2022-10-16T06:27:00;101339.13;;;8.14;90.99
12781;BME280;6454;43.304;24.344;2022-10-16T06:29:27;101341.69;;;8.21;90.30
12781;BME280;6454;43.304;24.344;2022-10-16T06:31:55;101354.94;;;8.34;90.92
12781;BME280;6454;43.304;24.344;2022-10-16T06:34:22;101348.72;;;8.50;91.26
12781;BME280;6454;43.304;24.344;2022-10-16T06:36:49;101357.38;;;8.64;90.83
12781;BME280;6454;43.304;24.344;2022-10-16T06:39:16;101368.44;;;8.79;89.64
12781;BME280;6454;43.304;24.344;2022-10-16T06:41:43;101360.50;;;8.89;88.77
12781;BME280;6454;43.304;24.344;2022-10-16T06:44:10;101361.72;;;8.98;88.63
12781;BME280;6454;43.304;24.344;2022-10-16T06:46:37;101367.63;;;9.12;88.12
12781;BME280;6454;43.304;24.344;2022-10-16T06:49:05;101368.09;;;9.25;87.24
12781;BME280;6454;43.304;24.344;2022-10-16T06:51:32;101375.59;;;9.35;86.73
12781;BME280;6454;43.304;24.344;2022-10-16T06:54:00;101380.13;;;9.51;86.36
12781;BME280;6454;43.304;24.344;2022-10-16T06:56:28;101373.22;;;9.60;86.21
12781;BME280;6454;43.304;24.344;2022-10-16T06:58:56;101360.88;;;9.69;86.09
12781;BME280;6454;43.304;24.344;2022-10-16T07:01:23;101369.16;;;9.79;86.08
12781;BME280;6454;43.304;24.344;2022-10-16T07:03:51;101374.69;;;9.89;86.05
12781;BME280;6454;43.304;24.344;2022-10-16T07:06:21;101375.69;;;10.05;85.81
12781;BME280;6454;43.304;24.344;2022-10-16T07:08:49;101385.31;;;10.12;84.77
12781;BME280;6454;43.304;24.344;2022-10-16T07:11:18;101389.84;;;10.28;84.44
12781;BME280;6454;43.304;24.344;2022-10-16T07:13:46;101387.75;;;10.35;84.27
12781;BME280;6454;43.304;24.344;2022-10-16T07:16:15;101385.97;;;10.46;84.28
12781;BME280;6454;43.304;24.344;2022-10-16T07:18:43;101387.44;;;10.59;84.40
12781;BME280;6454;43.304;24.344;2022-10-16T07:21:13;101381.63;;;10.72;83.61
12781;BME280;6454;43.304;24.344;2022-10-16T07:23:42;101387.09;;;10.82;83.06
12781;BME280;6454;43.304;24.344;2022-10-16T07:26:10;101380.16;;;10.91;82.73
12781;BME280;6454;43.304;24.344;2022-10-16T07:28:37;101377.06;;;11.09;82.67
12781;BME280;6454;43.304;24.344;2022-10-16T07:31:06;101382.28;;;11.21;81.82
12781;BME280;6454;43.304;24.344;2022-10-16T07:33:37;101377.72;;;11.26;80.88
12781;BME280;6454;43.304;24.344;2022-10-16T07:36:04;101377.22;;;11.34;80.79
12781;BME280;6454;43.304;24.344;2022-10-16T07:38:31;101380.28;;;11.48;79.50
12781;BME280;6454;43.304;24.344;2022-10-16T07:41:01;101370.81;;;11.50;78.91
12781;BME280;6454;43.304;24.344;2022-10-16T07:43:28;101376.81;;;11.57;78.50
12781;BME280;6454;43.304;24.344;2022-10-16T07:45:55;101384.03;;;11.74;78.57
12781;BME280;6454;43.304;24.344;2022-10-16T07:48:23;101367.97;;;11.77;77.08
12781;BME280;6454;43.304;24.344;2022-10-16T07:50:50;101374.59;;;11.91;77.14
12781;BME280;6454;43.304;24.344;2022-10-16T07:53:16;101370.53;;;11.99;76.76
12781;BME280;6454;43.304;24.344;2022-10-16T07:55:43;101377.63;;;12.05;76.47
12781;BME280;6454;43.304;24.344;2022-10-16T07:58:12;101382.25;;;12.09;76.62
12781;BME280;6454;43.304;24.344;2022-10-16T08:00:39;101377.69;;;12.25;76.19
12781;BME280;6454;43.304;24.344;2022-10-16T08:03:06;101389.97;;;12.33;75.18
12781;BME280;6454;43.304;24.344;2022-10-16T08:05:33;101376.38;;;12.43;74.38
12781;BME280;6454;43.304;24.344;2022-10-16T08:08:00;101390.84;;;12.58;74.15
12781;BME280;6454;43.304;24.344;2022-10-16T08:10:28;101377.78;;;12.70;73.61
12781;BME280;6454;43.304;24.344;2022-10-16T08:12:57;101391.13;;;12.82;73.31
12781;BME280;6454;43.304;24.344;2022-10-16T08:15:34;101384.88;;;12.91;73.33
12781;BME280;6454;43.304;24.344;2022-10-16T08:18:19;101394.72;;;13.08;72.57
12781;BME280;6454;43.304;24.344;2022-10-16T08:20:57;101376.47;;;13.03;72.07
12781;BME280;6454;43.304;24.344;2022-10-16T08:23:24;101391.47;;;13.26;71.95
12781;BME280;6454;43.304;24.344;2022-10-16T08:25:51;101390.88;;;13.34;71.38
12781;BME280;6454;43.304;24.344;2022-10-16T08:28:19;101384.88;;;13.42;70.77
12781;BME280;6454;43.304;24.344;2022-10-16T08:30:47;101387.56;;;13.62;70.82
12781;BME280;6454;43.304;24.344;2022-10-16T08:33:14;101387.03;;;13.65;70.36
12781;BME280;6454;43.304;24.344;2022-10-16T08:35:41;101391.94;;;13.73;69.99
12781;BME280;6454;43.304;24.344;2022-10-16T08:38:09;101390.25;;;13.82;69.84
12781;BME280;6454;43.304;24.344;2022-10-16T08:40:36;101397.34;;;13.83;69.36
12781;BME280;6454;43.304;24.344;2022-10-16T08:43:24;101399.19;;;13.98;69.55
12781;BME280;6454;43.304;24.344;2022-10-16T08:46:14;101383.34;;;14.05;68.05
12781;BME280;6454;43.304;24.344;2022-10-16T08:48:47;101399.38;;;14.16;67.95
12781;BME280;6454;43.304;24.344;2022-10-16T08:51:20;101397.44;;;14.27;67.43
12781;BME280;6454;43.304;24.344;2022-10-16T08:53:50;101395.53;;;14.33;65.72
12781;BME280;6454;43.304;24.344;2022-10-16T08:56:18;101399.78;;;14.49;65.68
12781;BME280;6454;43.304;24.344;2022-10-16T08:58:46;101392.06;;;14.61;65.55
12781;BME280;6454;43.304;24.344;2022-10-16T09:01:17;101395.88;;;14.65;65.90
12781;BME280;6454;43.304;24.344;2022-10-16T09:04:18;101400.16;;;14.76;65.93
12781;BME280;6454;43.304;24.344;2022-10-16T09:06:52;101404.72;;;14.91;65.46
12781;BME280;6454;43.304;24.344;2022-10-16T09:09:36;101401.09;;;15.00;64.21
12781;BME280;6454;43.304;24.344;2022-10-16T09:12:13;101405.09;;;15.13;63.92
12781;BME280;6454;43.304;24.344;2022-10-16T09:14:53;101397.03;;;15.26;62.99
12781;BME280;6454;43.304;24.344;2022-10-16T09:17:33;101403.75;;;15.39;61.82
12781;BME280;6454;43.304;24.344;2022-10-16T09:20:14;101398.00;;;15.45;60.50
12781;BME280;6454;43.304;24.344;2022-10-16T09:22:44;101394.38;;;15.50;61.11
12781;BME280;6454;43.304;24.344;2022-10-16T09:25:13;101394.50;;;15.64;60.02
12781;BME280;6454;43.304;24.344;2022-10-16T09:27:42;101396.91;;;15.70;60.25
12781;BME280;6454;43.304;24.344;2022-10-16T09:30:12;101396.75;;;15.85;60.97
12781;BME280;6454;43.304;24.344;2022-10-16T09:32:41;101397.31;;;15.82;59.76
12781;BME280;6454;43.304;24.344;2022-10-16T09:35:14;101393.66;;;15.92;59.34
12781;BME280;6454;43.304;24.344;2022-10-16T09:37:42;101389.66;;;16.03;59.26
12781;BME280;6454;43.304;24.344;2022-10-16T09:40:23;101389.91;;;16.06;57.59
12781;BME280;6454;43.304;24.344;2022-10-16T09:42:55;101383.63;;;16.06;55.56
12781;BME280;6454;43.304;24.344;2022-10-16T09:45:24;101379.28;;;16.05;56.39
12781;BME280;6454;43.304;24.344;2022-10-16T09:47:53;101373.72;;;16.10;56.67
12781;BME280;6454;43.304;24.344;2022-10-16T09:50:22;101374.75;;;16.14;55.86
12781;BME280;6454;43.304;24.344;2022-10-16T09:53:02;101376.03;;;16.22;56.11
12781;BME280;6454;43.304;24.344;2022-10-16T09:55:29;101371.38;;;16.22;55.10
12781;BME280;6454;43.304;24.344;2022-10-16T09:57:56;101376.41;;;16.34;55.80
12781;BME280;6454;43.304;24.344;2022-10-16T10:00:24;101363.41;;;16.44;54.77
12781;BME280;6454;43.304;24.344;2022-10-16T10:02:53;101361.69;;;16.48;55.16
12781;BME280;6454;43.304;24.344;2022-10-16T10:05:22;101366.53;;;16.56;54.72
12781;BME280;6454;43.304;24.344;2022-10-16T10:07:55;101363.63;;;16.66;54.48
12781;BME280;6454;43.304;24.344;2022-10-16T10:10:25;101353.09;;;16.73;54.10
12781;BME280;6454;43.304;24.344;2022-10-16T10:12:53;101347.84;;;16.77;54.03
12781;BME280;6454;43.304;24.344;2022-10-16T10:15:21;101351.94;;;16.80;52.77
12781;BME280;6454;43.304;24.344;2022-10-16T10:17:52;101336.16;;;16.71;53.50
12781;BME280;6454;43.304;24.344;2022-10-16T10:20:25;101360.41;;;16.97;52.41
12781;BME280;6454;43.304;24.344;2022-10-16T10:22:53;101351.88;;;16.98;52.08
12781;BME280;6454;43.304;24.344;2022-10-16T10:25:48;101347.22;;;16.99;51.81
12781;BME280;6454;43.304;24.344;2022-10-16T10:31:27;101345.44;;;17.21;52.30
12781;BME280;6454;43.304;24.344;2022-10-16T10:34:04;101343.81;;;17.20;50.54
12781;BME280;6454;43.304;24.344;2022-10-16T10:36:37;101343.53;;;17.22;49.73
12781;BME280;6454;43.304;24.344;2022-10-16T10:39:08;101341.19;;;17.29;50.97
12781;BME280;6454;43.304;24.344;2022-10-16T10:42:02;101342.44;;;17.36;50.68
12781;BME280;6454;43.304;24.344;2022-10-16T10:44:48;101329.63;;;17.32;49.65
12781;BME280;6454;43.304;24.344;2022-10-16T10:47:27;101332.19;;;17.42;50.39
12781;BME280;6454;43.304;24.344;2022-10-16T10:50:07;101336.66;;;17.52;49.76
12781;BME280;6454;43.304;24.344;2022-10-16T10:52:52;101333.75;;;17.62;49.40
12781;BME280;6454;43.304;24.344;2022-10-16T10:55:26;101323.28;;;17.64;48.80
12781;BME280;6454;43.304;24.344;2022-10-16T10:58:08;101329.19;;;17.57;48.66
12781;BME280;6454;43.304;24.344;2022-10-16T11:00:49;101313.41;;;17.63;48.65
12781;BME280;6454;43.304;24.344;2022-10-16T11:03:32;101319.13;;;17.66;48.56
12781;BME280;6454;43.304;24.344;2022-10-16T11:06:06;101315.75;;;17.83;48.86
12781;BME280;6454;43.304;24.344;2022-10-16T11:08:36;101313.50;;;17.98;47.15
12781;BME280;6454;43.304;24.344;2022-10-16T11:11:10;101302.00;;;17.96;46.64
12781;BME280;6454;43.304;24.344;2022-10-16T11:13:42;101298.66;;;17.99;47.10
12781;BME280;6454;43.304;24.344;2022-10-16T11:16:15;101302.28;;;17.95;46.26
12781;BME280;6454;43.304;24.344;2022-10-16T11:18:50;101298.66;;;17.99;45.35
12781;BME280;6454;43.304;24.344;2022-10-16T11:21:20;101307.16;;;18.12;44.95
12781;BME280;6454;43.304;24.344;2022-10-16T11:23:52;101313.47;;;18.12;45.07
12781;BME280;6454;43.304;24.344;2022-10-16T11:26:24;101302.28;;;18.09;45.22
12781;BME280;6454;43.304;24.344;2022-10-16T11:28:54;101306.97;;;18.08;44.87
12781;BME280;6454;43.304;24.344;2022-10-16T11:31:28;101303.94;;;18.10;44.75
12781;BME280;6454;43.304;24.344;2022-10-16T11:34:02;101307.78;;;18.09;45.11
12781;BME280;6454;43.304;24.344;2022-10-16T11:36:38;101306.56;;;18.15;44.62
12781;BME280;6454;43.304;24.344;2022-10-16T11:39:15;101309.19;;;18.20;44.27
12781;BME280;6454;43.304;24.344;2022-10-16T11:41:48;101304.06;;;18.27;44.95
12781;BME280;6454;43.304;24.344;2022-10-16T11:44:34;101311.50;;;18.26;44.14
12781;BME280;6454;43.304;24.344;2022-10-16T11:47:24;101307.31;;;18.29;44.23
12781;BME280;6454;43.304;24.344;2022-10-16T11:49:57;101286.31;;;18.11;43.76
12781;BME280;6454;43.304;24.344;2022-10-16T11:52:35;101309.88;;;18.25;44.60
12781;BME280;6454;43.304;24.344;2022-10-16T11:55:09;101314.00;;;18.36;44.00
12781;BME280;6454;43.304;24.344;2022-10-16T11:57:44;101313.69;;;18.38;44.82
12781;BME280;6454;43.304;24.344;2022-10-16T12:00:19;101308.56;;;18.45;44.86
12781;BME280;6454;43.304;24.344;2022-10-16T12:02:55;101310.84;;;18.43;44.15
12781;BME280;6454;43.304;24.344;2022-10-16T12:05:35;101305.03;;;18.44;44.65
12781;BME280;6454;43.304;24.344;2022-10-16T12:08:11;101284.34;;;18.25;44.42
12781;BME280;6454;43.304;24.344;2022-10-16T12:10:41;101322.56;;;18.35;44.05
12781;BME280;6454;43.304;24.344;2022-10-16T12:13:30;101313.81;;;18.33;43.93
12781;BME280;6454;43.304;24.344;2022-10-16T12:16:19;101314.72;;;18.42;44.13
12781;BME280;6454;43.304;24.344;2022-10-16T12:18:47;101311.66;;;18.43;43.71
12781;BME280;6454;43.304;24.344;2022-10-16T12:21:16;101310.56;;;18.31;43.52
12781;BME280;6454;43.304;24.344;2022-10-16T12:23:50;101303.19;;;18.40;43.97
12781;BME280;6454;43.304;24.344;2022-10-16T12:26:25;101314.06;;;18.45;44.19
12781;BME280;6454;43.304;24.344;2022-10-16T12:28:52;101312.75;;;18.42;44.04
12781;BME280;6454;43.304;24.344;2022-10-16T12:31:19;101304.72;;;18.46;43.96
12781;BME280;6454;43.304;24.344;2022-10-16T12:33:58;101301.38;;;18.49;43.78
12781;BME280;6454;43.304;24.344;2022-10-16T12:36:28;101301.38;;;18.49;43.50
12781;BME280;6454;43.304;24.344;2022-10-16T12:38:58;101299.88;;;18.65;43.88
12781;BME280;6454;43.304;24.344;2022-10-16T12:41:28;101305.38;;;18.65;42.95
12781;BME280;6454;43.304;24.344;2022-10-16T12:43:55;101312.88;;;18.73;42.13
12781;BME280;6454;43.304;24.344;2022-10-16T12:46:37;101311.06;;;18.69;42.38
12781;BME280;6454;43.304;24.344;2022-10-16T12:49:22;101304.75;;;18.68;41.30
12781;BME280;6454;43.304;24.344;2022-10-16T12:51:51;101313.00;;;18.68;41.59
12781;BME280;6454;43.304;24.344;2022-10-16T12:54:24;101306.81;;;18.62;42.04
12781;BME280;6454;43.304;24.344;2022-10-16T12:57:00;101305.22;;;18.61;42.83
12781;BME280;6454;43.304;24.344;2022-10-16T12:59:36;101299.13;;;18.73;42.79
12781;BME280;6454;43.304;24.344;2022-10-16T13:02:27;101310.25;;;18.68;42.51
12781;BME280;6454;43.304;24.344;2022-10-16T13:05:23;101309.16;;;18.69;41.87
12781;BME280;6454;43.304;24.344;2022-10-16T13:07:59;101308.53;;;18.72;41.72
12781;BME280;6454;43.304;24.344;2022-10-16T13:10:35;101306.56;;;18.73;41.73
12781;BME280;6454;43.304;24.344;2022-10-16T13:13:18;101317.03;;;18.62;41.95
12781;BME280;6454;43.304;24.344;2022-10-16T13:16:06;101314.56;;;18.60;42.73
12781;BME280;6454;43.304;24.344;2022-10-16T13:18:43;101318.63;;;18.63;41.34
12781;BME280;6454;43.304;24.344;2022-10-16T13:21:21;101320.69;;;18.57;41.63